sensor_id;sensor_type;location;lat;lon;timestamp;temperature;humidity
23475;DHT22;11910;52.086;21.066;2023-04-15T00:01:59;12.00;90.30
23475;DHT22;11910;52.086;21.066;2023-04-15T00:04:25;11.90;90.80
23475;DHT22;11910;52.086;21.066;2023-04-15T00:06:52;11.80;91.00
23475;DHT22;11910;52.086;21.066;2023-04-15T00:09:18;11.70;91.50
23475;DHT22;11910;52.086;21.066;2023-04-15T00:11:44;11.60;92.50
23475;DHT22;11910;52.086;21.066;2023-04-15T00:14:11;11.60;93.00
23475;DHT22;11910;52.086;21.066;2023-04-15T00:16:37;11.70;92.70
23475;DHT22;11910;52.086;21.066;2023-04-15T00:19:03;11.70;92.20
23475;DHT22;11910;52.086;21.066;2023-04-15T00:21:29;11.70;92.10
23475;DHT22;11910;52.086;21.066;2023-04-15T00:23:55;11.70;92.20
23475;DHT22;11910;52.086;21.066;2023-04-15T00:26:21;11.70;92.20
23475;DHT22;11910;52.086;21.066;2023-04-15T00:28:46;11.80;92.20
23475;DHT22;11910;52.086;21.066;2023-04-15T00:31:12;11.70;92.00
23475;DHT22;11910;52.086;21.066;2023-04-15T00:33:38;11.80;92.50
23475;DHT22;11910;52.086;21.066;2023-04-15T00:36:05;11.70;92.20
23475;DHT22;11910;52.086;21.066;2023-04-15T00:38:31;11.80;92.10
23475;DHT22;11910;52.086;21.066;2023-04-15T00:40:58;11.80;91.60
23475;DHT22;11910;52.086;21.066;2023-04-15T00:43:23;11.80;91.30
23475;DHT22;11910;52.086;21.066;2023-04-15T00:45:51;11.80;91.50
23475;DHT22;11910;52.086;21.066;2023-04-15T00:48:18;11.80;91.30
23475;DHT22;11910;52.086;21.066;2023-04-15T00:50:44;11.90;91.30
23475;DHT22;11910;52.086;21.066;2023-04-15T00:53:09;11.90;91.00
23475;DHT22;11910;52.086;21.066;2023-04-15T00:55:36;11.80;91.40
23475;DHT22;11910;52.086;21.066;2023-04-15T00:58:02;11.70;92.10
23475;DHT22;11910;52.086;21.066;2023-04-15T01:00:28;11.50;92.50
23475;DHT22;11910;52.086;21.066;2023-04-15T01:02:54;11.60;92.70
23475;DHT22;11910;52.086;21.066;2023-04-15T01:05:20;11.70;92.80
23475;DHT22;11910;52.086;21.066;2023-04-15T01:07:47;11.60;92.20
23475;DHT22;11910;52.086;21.066;2023-04-15T01:10:13;11.60;92.30
23475;DHT22;11910;52.086;21.066;2023-04-15T01:12:38;11.60;93.00
23475;DHT22;11910;52.086;21.066;2023-04-15T01:15:05;11.50;93.00
23475;DHT22;11910;52.086;21.066;2023-04-15T01:17:30;11.60;93.70
23475;DHT22;11910;52.086;21.066;2023-04-15T01:19:57;11.60;93.20
23475;DHT22;11910;52.086;21.066;2023-04-15T01:22:23;11.60;93.20
23475;DHT22;11910;52.086;21.066;2023-04-15T01:25:04;11.60;93.50
23475;DHT22;11910;52.086;21.066;2023-04-15T01:27:30;11.60;93.70
23475;DHT22;11910;52.086;21.066;2023-04-15T01:29:56;11.60;93.90
23475;DHT22;11910;52.086;21.066;2023-04-15T01:32:22;11.60;94.60
23475;DHT22;11910;52.086;21.066;2023-04-15T01:34:48;11.60;94.50
23475;DHT22;11910;52.086;21.066;2023-04-15T01:37:14;11.60;94.30
23475;DHT22;11910;52.086;21.066;2023-04-15T01:39:39;11.60;94.50
23475;DHT22;11910;52.086;21.066;2023-04-15T01:42:05;11.60;94.80
23475;DHT22;11910;52.086;21.066;2023-04-15T01:44:31;11.60;94.40
23475;DHT22;11910;52.086;21.066;2023-04-15T01:46:56;11.50;95.40
23475;DHT22;11910;52.086;21.066;2023-04-15T01:49:22;11.40;95.80
23475;DHT22;11910;52.086;21.066;2023-04-15T01:51:48;11.40;96.50
23475;DHT22;11910;52.086;21.066;2023-04-15T01:54:14;11.30;97.00
23475;DHT22;11910;52.086;21.066;2023-04-15T01:56:39;11.30;97.00
23475;DHT22;11910;52.086;21.066;2023-04-15T01:59:05;11.30;97.30
23475;DHT22;11910;52.086;21.066;2023-04-15T02:01:30;11.30;96.60
23475;DHT22;11910;52.086;21.066;2023-04-15T02:03:56;11.30;96.60
23475;DHT22;11910;52.086;21.066;2023-04-15T02:06:22;11.30;97.20
23475;DHT22;11910;52.086;21.066;2023-04-15T02:08:47;11.30;97.10
23475;DHT22;11910;52.086;21.066;2023-04-15T02:11:13;11.30;97.40
23475;DHT22;11910;52.086;21.066;2023-04-15T02:13:39;11.30;97.90
23475;DHT22;11910;52.086;21.066;2023-04-15T02:16:15;11.40;97.20
23475;DHT22;11910;52.086;21.066;2023-04-15T02:18:41;11.40;98.20
23475;DHT22;11910;52.086;21.066;2023-04-15T02:21:07;11.40;97.10
23475;DHT22;11910;52.086;21.066;2023-04-15T02:23:33;11.40;97.30
23475;DHT22;11910;52.086;21.066;2023-04-15T02:25:58;11.30;98.00
23475;DHT22;11910;52.086;21.066;2023-04-15T02:28:24;11.30;98.60
23475;DHT22;11910;52.086;21.066;2023-04-15T02:30:50;11.30;97.70
23475;DHT22;11910;52.086;21.066;2023-04-15T02:33:17;11.30;97.40
23475;DHT22;11910;52.086;21.066;2023-04-15T02:35:43;11.20;97.50
23475;DHT22;11910;52.086;21.066;2023-04-15T02:38:10;11.20;98.90
23475;DHT22;11910;52.086;21.066;2023-04-15T02:40:36;11.20;99.00
23475;DHT22;11910;52.086;21.066;2023-04-15T02:43:02;11.20;98.70
23475;DHT22;11910;52.086;21.066;2023-04-15T02:45:27;11.10;99.50
23475;DHT22;11910;52.086;21.066;2023-04-15T02:47:53;11.20;99.40
23475;DHT22;11910;52.086;21.066;2023-04-15T02:50:19;11.20;99.90
23475;DHT22;11910;52.086;21.066;2023-04-15T02:52:45;11.20;99.90
23475;DHT22;11910;52.086;21.066;2023-04-15T02:55:11;11.20;99.90
23475;DHT22;11910;52.086;21.066;2023-04-15T02:57:37;11.10;99.90
23475;DHT22;11910;52.086;21.066;2023-04-15T03:00:04;11.10;99.90
23475;DHT22;11910;52.086;21.066;2023-04-15T03:02:34;11.00;99.90
23475;DHT22;11910;52.086;21.066;2023-04-15T03:05:00;11.10;99.90
23475;DHT22;11910;52.086;21.066;2023-04-15T03:07:25;11.10;99.90
23475;DHT22;11910;52.086;21.066;2023-04-15T03:09:51;11.20;99.90
23475;DHT22;11910;52.086;21.066;2023-04-15T03:12:17;11.20;99.90
23475;DHT22;11910;52.086;21.066;2023-04-15T03:14:42;11.20;99.80
23475;DHT22;11910;52.086;21.066;2023-04-15T03:17:08;11.30;99.80
23475;DHT22;11910;52.086;21.066;2023-04-15T03:19:33;11.30;99.00
23475;DHT22;11910;52.086;21.066;2023-04-15T03:21:59;11.40;98.90
23475;DHT22;11910;52.086;21.066;2023-04-15T03:24:25;11.40;98.70
23475;DHT22;11910;52.086;21.066;2023-04-15T03:26:51;11.40;98.60
23475;DHT22;11910;52.086;21.066;2023-04-15T03:29:17;11.50;98.40
23475;DHT22;11910;52.086;21.066;2023-04-15T03:31:42;11.50;98.00
23475;DHT22;11910;52.086;21.066;2023-04-15T03:34:08;11.40;98.50
23475;DHT22;11910;52.086;21.066;2023-04-15T03:36:33;11.40;98.10
23475;DHT22;11910;52.086;21.066;2023-04-15T03:38:59;11.40;98.30
23475;DHT22;11910;52.086;21.066;2023-04-15T03:41:26;11.40;98.10
23475;DHT22;11910;52.086;21.066;2023-04-15T03:43:52;11.40;98.40
23475;DHT22;11910;52.086;21.066;2023-04-15T03:46:18;11.30;98.30
23475;DHT22;11910;52.086;21.066;2023-04-15T03:48:44;11.40;98.60
23475;DHT22;11910;52.086;21.066;2023-04-15T03:51:09;11.40;98.40
23475;DHT22;11910;52.086;21.066;2023-04-15T03:53:35;11.30;98.30
23475;DHT22;11910;52.086;21.066;2023-04-15T03:56:01;11.40;98.40
23475;DHT22;11910;52.086;21.066;2023-04-15T03:58:26;11.40;98.60
23475;DHT22;11910;52.086;21.066;2023-04-15T04:00:52;11.30;98.60
23475;DHT22;11910;52.086;21.066;2023-04-15T04:03:19;11.30;99.90
23475;DHT22;11910;52.086;21.066;2023-04-15T04:05:44;11.20;99.90
23475;DHT22;11910;52.086;21.066;2023-04-15T04:08:10;11.30;99.90
23475;DHT22;11910;52.086;21.066;2023-04-15T04:10:38;11.30;99.90
23475;DHT22;11910;52.086;21.066;2023-04-15T04:13:04;11.20;99.90
23475;DHT22;11910;52.086;21.066;2023-04-15T04:15:29;11.20;99.90
23475;DHT22;11910;52.086;21.066;2023-04-15T04:17:55;11.30;99.90
23475;DHT22;11910;52.086;21.066;2023-04-15T04:20:21;11.20;99.90
23475;DHT22;11910;52.086;21.066;2023-04-15T04:22:47;11.20;99.90
23475;DHT22;11910;52.086;21.066;2023-04-15T04:25:12;11.20;99.90
23475;DHT22;11910;52.086;21.066;2023-04-15T04:27:38;11.20;99.90
23475;DHT22;11910;52.086;21.066;2023-04-15T04:30:05;11.20;99.90
23475;DHT22;11910;52.086;21.066;2023-04-15T04:32:31;11.20;99.90
23475;DHT22;11910;52.086;21.066;2023-04-15T04:34:56;11.30;99.90
23475;DHT22;11910;52.086;21.066;2023-04-15T04:37:22;11.30;99.90
23475;DHT22;11910;52.086;21.066;2023-04-15T04:39:49;11.30;99.90
23475;DHT22;11910;52.086;21.066;2023-04-15T04:42:14;11.40;99.90
23475;DHT22;11910;52.086;21.066;2023-04-15T04:44:40;11.30;99.90
23475;DHT22;11910;52.086;21.066;2023-04-15T04:47:06;11.30;99.90
23475;DHT22;11910;52.086;21.066;2023-04-15T04:49:32;11.30;99.90
23475;DHT22;11910;52.086;21.066;2023-04-15T04:51:58;11.30;99.90
23475;DHT22;11910;52.086;21.066;2023-04-15T04:54:26;11.30;99.90
23475;DHT22;11910;52.086;21.066;2023-04-15T04:56:52;11.30;99.90
23475;DHT22;11910;52.086;21.066;2023-04-15T04:59:18;11.30;99.90
23475;DHT22;11910;52.086;21.066;2023-04-15T05:01:43;11.30;99.90
23475;DHT22;11910;52.086;21.066;2023-04-15T05:04:09;11.40;99.90
23475;DHT22;11910;52.086;21.066;2023-04-15T05:06:35;11.40;99.90
23475;DHT22;11910;52.086;21.066;2023-04-15T05:09:01;11.40;99.90
23475;DHT22;11910;52.086;21.066;2023-04-15T05:11:28;11.40;99.90
23475;DHT22;11910;52.086;21.066;2023-04-15T05:13:53;11.30;99.90
23475;DHT22;11910;52.086;21.066;2023-04-15T05:16:19;11.30;99.90
23475;DHT22;11910;52.086;21.066;2023-04-15T05:18:45;11.30;99.90
23475;DHT22;11910;52.086;21.066;2023-04-15T05:21:11;11.30;99.90
23475;DHT22;11910;52.086;21.066;2023-04-15T05:23:36;11.30;99.90
23475;DHT22;11910;52.086;21.066;2023-04-15T05:26:02;11.30;99.90
23475;DHT22;11910;52.086;21.066;2023-04-15T05:28:28;11.30;99.90
23475;DHT22;11910;52.086;21.066;2023-04-15T05:30:54;11.30;99.90
23475;DHT22;11910;52.086;21.066;2023-04-15T05:33:19;11.30;99.90
23475;DHT22;11910;52.086;21.066;2023-04-15T05:35:45;11.40;99.90
23475;DHT22;11910;52.086;21.066;2023-04-15T05:38:11;11.40;99.90
23475;DHT22;11910;52.086;21.066;2023-04-15T05:40:36;11.30;99.90
23475;DHT22;11910;52.086;21.066;2023-04-15T05:43:02;11.30;99.90
23475;DHT22;11910;52.086;21.066;2023-04-15T05:45:28;11.30;99.90
23475;DHT22;11910;52.086;21.066;2023-04-15T05:47:53;11.30;99.90
23475;DHT22;11910;52.086;21.066;2023-04-15T05:50:19;11.30;99.90
23475;DHT22;11910;52.086;21.066;2023-04-15T05:52:45;11.40;99.90
23475;DHT22;11910;52.086;21.066;2023-04-15T05:55:11;11.40;99.90
23475;DHT22;11910;52.086;21.066;2023-04-15T05:57:37;11.50;99.90
23475;DHT22;11910;52.086;21.066;2023-04-15T06:00:05;11.50;99.90
23475;DHT22;11910;52.086;21.066;2023-04-15T06:02:30;11.50;99.90
23475;DHT22;11910;52.086;21.066;2023-04-15T06:04:56;11.50;99.90
23475;DHT22;11910;52.086;21.066;2023-04-15T06:07:23;11.50;99.90
23475;DHT22;11910;52.086;21.066;2023-04-15T06:09:49;11.40;99.90
23475;DHT22;11910;52.086;21.066;2023-04-15T06:12:15;11.40;99.90
23475;DHT22;11910;52.086;21.066;2023-04-15T06:14:41;11.40;99.90
23475;DHT22;11910;52.086;21.066;2023-04-15T06:17:07;11.40;99.90
23475;DHT22;11910;52.086;21.066;2023-04-15T06:19:34;11.40;99.90
23475;DHT22;11910;52.086;21.066;2023-04-15T06:22:01;11.30;99.90
23475;DHT22;11910;52.086;21.066;2023-04-15T06:24:27;11.30;99.90
23475;DHT22;11910;52.086;21.066;2023-04-15T06:26:53;11.30;99.90
23475;DHT22;11910;52.086;21.066;2023-04-15T06:29:18;11.30;99.90
23475;DHT22;11910;52.086;21.066;2023-04-15T06:31:46;11.20;99.90
23475;DHT22;11910;52.086;21.066;2023-04-15T06:34:11;11.30;99.90
23475;DHT22;11910;52.086;21.066;2023-04-15T06:36:37;11.30;99.90
23475;DHT22;11910;52.086;21.066;2023-04-15T06:39:02;11.30;99.90
23475;DHT22;11910;52.086;21.066;2023-04-15T06:41:28;11.30;99.90
23475;DHT22;11910;52.086;21.066;2023-04-15T06:43:54;11.30;99.90
23475;DHT22;11910;52.086;21.066;2023-04-15T06:46:19;11.30;99.90
23475;DHT22;11910;52.086;21.066;2023-04-15T06:48:45;11.30;99.90
23475;DHT22;11910;52.086;21.066;2023-04-15T06:51:10;11.40;99.90
23475;DHT22;11910;52.086;21.066;2023-04-15T06:53:36;11.30;99.90
23475;DHT22;11910;52.086;21.066;2023-04-15T06:56:06;11.30;99.90
23475;DHT22;11910;52.086;21.066;2023-04-15T06:58:32;11.30;99.90
23475;DHT22;11910;52.086;21.066;2023-04-15T07:00:58;11.30;99.90
23475;DHT22;11910;52.086;21.066;2023-04-15T07:03:23;11.30;99.90
23475;DHT22;11910;52.086;21.066;2023-04-15T07:05:49;11.30;99.90
23475;DHT22;11910;52.086;21.066;2023-04-15T07:08:15;11.30;99.90
23475;DHT22;11910;52.086;21.066;2023-04-15T07:10:40;11.30;99.90
23475;DHT22;11910;52.086;21.066;2023-04-15T07:13:06;11.30;99.90
23475;DHT22;11910;52.086;21.066;2023-04-15T07:15:39;11.30;99.90
23475;DHT22;11910;52.086;21.066;2023-04-15T07:18:07;11.40;99.90
23475;DHT22;11910;52.086;21.066;2023-04-15T07:20:34;11.40;99.90
23475;DHT22;11910;52.086;21.066;2023-04-15T07:23:00;11.50;99.90
23475;DHT22;11910;52.086;21.066;2023-04-15T07:25:26;11.50;99.90
23475;DHT22;11910;52.086;21.066;2023-04-15T07:27:52;11.50;99.90
23475;DHT22;11910;52.086;21.066;2023-04-15T07:30:18;11.50;99.90
23475;DHT22;11910;52.086;21.066;2023-04-15T07:32:44;11.60;99.90
23475;DHT22;11910;52.086;21.066;2023-04-15T07:35:12;11.60;99.90
23475;DHT22;11910;52.086;21.066;2023-04-15T07:37:40;11.60;99.90
23475;DHT22;11910;52.086;21.066;2023-04-15T07:40:09;11.60;99.90
23475;DHT22;11910;52.086;21.066;2023-04-15T07:42:35;11.50;99.90
23475;DHT22;11910;52.086;21.066;2023-04-15T07:45:01;11.60;99.90
23475;DHT22;11910;52.086;21.066;2023-04-15T07:47:26;11.70;99.90
23475;DHT22;11910;52.086;21.066;2023-04-15T07:49:57;11.70;99.90
23475;DHT22;11910;52.086;21.066;2023-04-15T07:52:23;11.70;99.90
23475;DHT22;11910;52.086;21.066;2023-04-15T07:54:48;11.70;99.90
23475;DHT22;11910;52.086;21.066;2023-04-15T07:57:14;11.70;99.90
23475;DHT22;11910;52.086;21.066;2023-04-15T07:59:44;11.60;99.90
23475;DHT22;11910;52.086;21.066;2023-04-15T08:02:10;11.60;99.90
23475;DHT22;11910;52.086;21.066;2023-04-15T08:04:36;11.70;99.90
23475;DHT22;11910;52.086;21.066;2023-04-15T08:07:03;11.70;99.90
23475;DHT22;11910;52.086;21.066;2023-04-15T08:09:31;11.80;99.90
23475;DHT22;11910;52.086;21.066;2023-04-15T08:12:00;11.70;99.90
23475;DHT22;11910;52.086;21.066;2023-04-15T08:14:26;11.70;99.90
23475;DHT22;11910;52.086;21.066;2023-04-15T08:16:51;11.80;99.90
23475;DHT22;11910;52.086;21.066;2023-04-15T08:19:17;11.80;99.90
23475;DHT22;11910;52.086;21.066;2023-04-15T08:21:42;11.80;99.90
23475;DHT22;11910;52.086;21.066;2023-04-15T08:24:08;11.90;99.90
23475;DHT22;11910;52.086;21.066;2023-04-15T08:26:34;11.90;99.90
23475;DHT22;11910;52.086;21.066;2023-04-15T08:28:59;11.90;99.90
23475;DHT22;11910;52.086;21.066;2023-04-15T08:31:28;12.00;99.90
23475;DHT22;11910;52.086;21.066;2023-04-15T08:33:57;12.00;99.90
23475;DHT22;11910;52.086;21.066;2023-04-15T08:36:25;12.10;99.90
23475;DHT22;11910;52.086;21.066;2023-04-15T08:38:51;12.10;99.90
23475;DHT22;11910;52.086;21.066;2023-04-15T08:41:22;12.10;99.90
23475;DHT22;11910;52.086;21.066;2023-04-15T08:43:53;12.10;99.90
23475;DHT22;11910;52.086;21.066;2023-04-15T08:46:21;12.20;99.90
23475;DHT22;11910;52.086;21.066;2023-04-15T08:48:48;12.10;99.90
23475;DHT22;11910;52.086;21.066;2023-04-15T08:51:16;12.10;99.90
23475;DHT22;11910;52.086;21.066;2023-04-15T08:53:43;12.10;99.90
23475;DHT22;11910;52.086;21.066;2023-04-15T08:56:11;12.20;99.90
23475;DHT22;11910;52.086;21.066;2023-04-15T08:58:38;12.20;99.90
23475;DHT22;11910;52.086;21.066;2023-04-15T09:01:07;12.20;99.90
23475;DHT22;11910;52.086;21.066;2023-04-15T09:03:33;12.20;99.90
23475;DHT22;11910;52.086;21.066;2023-04-15T09:06:00;12.30;99.90
23475;DHT22;11910;52.086;21.066;2023-04-15T09:08:26;12.20;99.90
23475;DHT22;11910;52.086;21.066;2023-04-15T09:10:52;12.20;99.90
23475;DHT22;11910;52.086;21.066;2023-04-15T09:13:18;12.20;99.90
23475;DHT22;11910;52.086;21.066;2023-04-15T09:15:44;12.20;99.90
23475;DHT22;11910;52.086;21.066;2023-04-15T09:18:11;12.20;99.90
23475;DHT22;11910;52.086;21.066;2023-04-15T09:20:41;12.20;99.90
23475;DHT22;11910;52.086;21.066;2023-04-15T09:23:25;12.20;99.90
23475;DHT22;11910;52.086;21.066;2023-04-15T09:25:54;12.20;99.90
23475;DHT22;11910;52.086;21.066;2023-04-15T09:28:23;12.20;99.90
23475;DHT22;11910;52.086;21.066;2023-04-15T09:30:54;12.10;99.90
23475;DHT22;11910;52.086;21.066;2023-04-15T09:33:19;12.20;99.90
23475;DHT22;11910;52.086;21.066;2023-04-15T09:36:05;12.20;99.90
23475;DHT22;11910;52.086;21.066;2023-04-15T09:38:31;12.20;99.90
23475;DHT22;11910;52.086;21.066;2023-04-15T09:40:58;12.20;99.90
23475;DHT22;11910;52.086;21.066;2023-04-15T09:43:36;12.20;99.90
23475;DHT22;11910;52.086;21.066;2023-04-15T09:46:03;12.20;99.90
23475;DHT22;11910;52.086;21.066;2023-04-15T09:48:29;12.20;99.90
23475;DHT22;11910;52.086;21.066;2023-04-15T09:51:00;12.10;99.90
23475;DHT22;11910;52.086;21.066;2023-04-15T09:53:26;12.10;99.90
23475;DHT22;11910;52.086;21.066;2023-04-15T09:55:57;12.10;99.90
23475;DHT22;11910;52.086;21.066;2023-04-15T10:00:53;12.20;99.90
23475;DHT22;11910;52.086;21.066;2023-04-15T10:03:28;12.20;99.90
23475;DHT22;11910;52.086;21.066;2023-04-15T10:05:55;12.10;99.90
23475;DHT22;11910;52.086;21.066;2023-04-15T10:08:26;12.00;99.90
23475;DHT22;11910;52.086;21.066;2023-04-15T10:10:53;12.00;99.90
23475;DHT22;11910;52.086;21.066;2023-04-15T10:13:26;11.90;99.90
23475;DHT22;11910;52.086;21.066;2023-04-15T10:16:19;11.90;99.90
23475;DHT22;11910;52.086;21.066;2023-04-15T10:18:46;12.00;99.90
23475;DHT22;11910;52.086;21.066;2023-04-15T10:21:12;12.00;99.90
23475;DHT22;11910;52.086;21.066;2023-04-15T10:23:41;11.90;99.90
23475;DHT22;11910;52.086;21.066;2023-04-15T10:26:07;11.90;99.90
23475;DHT22;11910;52.086;21.066;2023-04-15T10:28:34;11.80;99.90
23475;DHT22;11910;52.086;21.066;2023-04-15T10:30:59;11.70;99.90
23475;DHT22;11910;52.086;21.066;2023-04-15T10:33:26;11.60;99.90
23475;DHT22;11910;52.086;21.066;2023-04-15T10:35:54;11.50;99.90
23475;DHT22;11910;52.086;21.066;2023-04-15T10:38:37;11.50;99.90
23475;DHT22;11910;52.086;21.066;2023-04-15T10:41:15;11.30;99.90
23475;DHT22;11910;52.086;21.066;2023-04-15T10:43:52;11.30;99.90
23475;DHT22;11910;52.086;21.066;2023-04-15T10:46:37;11.20;99.90
23475;DHT22;11910;52.086;21.066;2023-04-15T10:49:13;11.30;99.90
23475;DHT22;11910;52.086;21.066;2023-04-15T10:51:44;11.40;99.90
23475;DHT22;11910;52.086;21.066;2023-04-15T10:54:32;11.40;99.90
23475;DHT22;11910;52.086;21.066;2023-04-15T10:59:35;11.60;99.90
23475;DHT22;11910;52.086;21.066;2023-04-15T11:02:03;11.70;99.90
23475;DHT22;11910;52.086;21.066;2023-04-15T11:04:52;11.70;99.90
23475;DHT22;11910;52.086;21.066;2023-04-15T11:07:36;11.70;99.90
23475;DHT22;11910;52.086;21.066;2023-04-15T11:12:42;11.80;99.90
23475;DHT22;11910;52.086;21.066;2023-04-15T11:15:36;11.90;99.90
23475;DHT22;11910;52.086;21.066;2023-04-15T11:20:38;12.00;99.90
23475;DHT22;11910;52.086;21.066;2023-04-15T11:23:05;12.10;99.90
23475;DHT22;11910;52.086;21.066;2023-04-15T11:25:32;12.20;99.90
23475;DHT22;11910;52.086;21.066;2023-04-15T11:28:00;12.20;99.90
23475;DHT22;11910;52.086;21.066;2023-04-15T11:30:28;12.20;99.90
23475;DHT22;11910;52.086;21.066;2023-04-15T11:32:57;12.30;99.90
23475;DHT22;11910;52.086;21.066;2023-04-15T11:35:26;12.20;99.90
23475;DHT22;11910;52.086;21.066;2023-04-15T11:37:53;12.20;99.90
23475;DHT22;11910;52.086;21.066;2023-04-15T11:40:24;12.20;99.90
23475;DHT22;11910;52.086;21.066;2023-04-15T11:43:11;12.20;99.90
23475;DHT22;11910;52.086;21.066;2023-04-15T11:45:53;11.80;99.90
23475;DHT22;11910;52.086;21.066;2023-04-15T11:48:25;11.80;99.90
23475;DHT22;11910;52.086;21.066;2023-04-15T11:51:00;11.80;99.90
23475;DHT22;11910;52.086;21.066;2023-04-15T11:53:55;12.00;99.90
23475;DHT22;11910;52.086;21.066;2023-04-15T11:56:25;12.10;99.90
23475;DHT22;11910;52.086;21.066;2023-04-15T11:58:53;12.20;99.90
23475;DHT22;11910;52.086;21.066;2023-04-15T12:01:19;12.30;99.90
23475;DHT22;11910;52.086;21.066;2023-04-15T12:03:48;12.30;99.90
23475;DHT22;11910;52.086;21.066;2023-04-15T12:13:56;12.60;99.90
23475;DHT22;11910;52.086;21.066;2023-04-15T12:16:23;12.50;99.90
23475;DHT22;11910;52.086;21.066;2023-04-15T12:18:53;12.50;99.90
23475;DHT22;11910;52.086;21.066;2023-04-15T12:21:25;12.50;99.90
23475;DHT22;11910;52.086;21.066;2023-04-15T12:23:53;12.60;99.90
23475;DHT22;11910;52.086;21.066;2023-04-15T12:26:26;12.70;99.90
23475;DHT22;11910;52.086;21.066;2023-04-15T12:29:00;12.80;99.90
23475;DHT22;11910;52.086;21.066;2023-04-15T12:31:26;12.90;99.90
23475;DHT22;11910;52.086;21.066;2023-04-15T12:33:56;13.10;99.90
23475;DHT22;11910;52.086;21.066;2023-04-15T12:36:22;13.20;99.90
23475;DHT22;11910;52.086;21.066;2023-04-15T12:38:48;13.40;99.90
23475;DHT22;11910;52.086;21.066;2023-04-15T12:41:15;13.40;99.90
23475;DHT22;11910;52.086;21.066;2023-04-15T12:43:40;13.40;99.90
23475;DHT22;11910;52.086;21.066;2023-04-15T12:46:06;13.60;99.90
23475;DHT22;11910;52.086;21.066;2023-04-15T12:48:35;13.80;99.90
23475;DHT22;11910;52.086;21.066;2023-04-15T12:51:06;13.80;99.90
23475;DHT22;11910;52.086;21.066;2023-04-15T12:53:31;13.70;99.90
23475;DHT22;11910;52.086;21.066;2023-04-15T12:56:00;13.80;99.90
23475;DHT22;11910;52.086;21.066;2023-04-15T12:58:26;13.60;99.90
23475;DHT22;11910;52.086;21.066;2023-04-15T13:00:51;13.50;99.90
23475;DHT22;11910;52.086;21.066;2023-04-15T13:03:17;13.50;99.90
23475;DHT22;11910;52.086;21.066;2023-04-15T13:05:43;13.50;99.90
23475;DHT22;11910;52.086;21.066;2023-04-15T13:08:09;13.50;99.90
23475;DHT22;11910;52.086;21.066;2023-04-15T13:10:37;13.60;99.90
23475;DHT22;11910;52.086;21.066;2023-04-15T13:13:04;13.80;99.90
23475;DHT22;11910;52.086;21.066;2023-04-15T13:15:30;13.90;99.90
23475;DHT22;11910;52.086;21.066;2023-04-15T13:17:59;14.00;99.90
23475;DHT22;11910;52.086;21.066;2023-04-15T13:20:28;14.00;99.90
23475;DHT22;11910;52.086;21.066;2023-04-15T13:22:53;14.10;99.90
23475;DHT22;11910;52.086;21.066;2023-04-15T13:25:19;14.00;99.90
23475;DHT22;11910;52.086;21.066;2023-04-15T13:27:48;13.80;99.90
23475;DHT22;11910;52.086;21.066;2023-04-15T13:30:14;13.90;99.90
23475;DHT22;11910;52.086;21.066;2023-04-15T13:32:39;13.90;99.90
23475;DHT22;11910;52.086;21.066;2023-04-15T13:35:05;14.00;99.90
23475;DHT22;11910;52.086;21.066;2023-04-15T13:37:31;14.00;99.90
23475;DHT22;11910;52.086;21.066;2023-04-15T13:39:56;14.10;99.90
23475;DHT22;11910;52.086;21.066;2023-04-15T13:42:23;14.10;99.90
23475;DHT22;11910;52.086;21.066;2023-04-15T13:44:49;14.10;99.90
23475;DHT22;11910;52.086;21.066;2023-04-15T13:47:16;14.10;99.80
23475;DHT22;11910;52.086;21.066;2023-04-15T13:49:43;14.10;99.90
23475;DHT22;11910;52.086;21.066;2023-04-15T13:52:11;14.10;99.90
23475;DHT22;11910;52.086;21.066;2023-04-15T13:54:37;14.10;99.90
23475;DHT22;11910;52.086;21.066;2023-04-15T13:57:03;14.10;99.90
23475;DHT22;11910;52.086;21.066;2023-04-15T13:59:29;14.00;99.90
23475;DHT22;11910;52.086;21.066;2023-04-15T14:01:55;14.10;99.90
23475;DHT22;11910;52.086;21.066;2023-04-15T14:04:23;14.00;99.40
23475;DHT22;11910;52.086;21.066;2023-04-15T14:06:49;14.00;99.60
23475;DHT22;11910;52.086;21.066;2023-04-15T14:09:17;14.00;99.90
23475;DHT22;11910;52.086;21.066;2023-04-15T14:11:43;14.00;99.60
23475;DHT22;11910;52.086;21.066;2023-04-15T14:14:15;13.90;99.90
23475;DHT22;11910;52.086;21.066;2023-04-15T14:16:41;14.00;99.90
23475;DHT22;11910;52.086;21.066;2023-04-15T14:19:07;14.00;99.90
23475;DHT22;11910;52.086;21.066;2023-04-15T14:21:35;14.60;99.90
23475;DHT22;11910;52.086;21.066;2023-04-15T14:24:01;14.90;98.90
23475;DHT22;11910;52.086;21.066;2023-04-15T14:26:26;15.50;98.60
23475;DHT22;11910;52.086;21.066;2023-04-15T14:28:52;16.00;97.50
23475;DHT22;11910;52.086;21.066;2023-04-15T14:31:21;16.20;96.00
23475;DHT22;11910;52.086;21.066;2023-04-15T14:33:46;16.40;95.30
23475;DHT22;11910;52.086;21.066;2023-04-15T14:36:12;16.50;95.00
23475;DHT22;11910;52.086;21.066;2023-04-15T14:38:43;16.60;93.90
23475;DHT22;11910;52.086;21.066;2023-04-15T14:41:09;17.00;94.10
23475;DHT22;11910;52.086;21.066;2023-04-15T14:43:37;17.10;92.90
23475;DHT22;11910;52.086;21.066;2023-04-15T14:46:03;17.60;92.50
23475;DHT22;11910;52.086;21.066;2023-04-15T14:48:30;18.00;91.30
23475;DHT22;11910;52.086;21.066;2023-04-15T14:50:56;18.00;90.80
23475;DHT22;11910;52.086;21.066;2023-04-15T14:53:22;18.00;90.20
23475;DHT22;11910;52.086;21.066;2023-04-15T14:55:48;17.70;89.10
23475;DHT22;11910;52.086;21.066;2023-04-15T14:58:16;17.50;89.50
23475;DHT22;11910;52.086;21.066;2023-04-15T15:00:42;16.90;90.40
23475;DHT22;11910;52.086;21.066;2023-04-15T15:03:09;16.60;90.60
23475;DHT22;11910;52.086;21.066;2023-04-15T15:05:43;16.30;91.40
23475;DHT22;11910;52.086;21.066;2023-04-15T15:08:09;16.40;90.90
23475;DHT22;11910;52.086;21.066;2023-04-15T15:10:36;16.60;91.30
23475;DHT22;11910;52.086;21.066;2023-04-15T15:13:03;16.80;91.00
23475;DHT22;11910;52.086;21.066;2023-04-15T15:15:29;16.90;91.00
23475;DHT22;11910;52.086;21.066;2023-04-15T15:17:55;17.10;90.40
23475;DHT22;11910;52.086;21.066;2023-04-15T15:20:22;17.10;91.60
23475;DHT22;11910;52.086;21.066;2023-04-15T15:22:48;17.20;90.70
23475;DHT22;11910;52.086;21.066;2023-04-15T15:25:13;17.20;90.70
23475;DHT22;11910;52.086;21.066;2023-04-15T15:27:39;17.00;90.60
23475;DHT22;11910;52.086;21.066;2023-04-15T15:30:05;16.80;90.70
23475;DHT22;11910;52.086;21.066;2023-04-15T15:32:34;16.30;90.80
23475;DHT22;11910;52.086;21.066;2023-04-15T15:34:59;16.10;90.70